MMZH/ZIH METAR and TAF weather

Enter ICAO airport designator
Station Type Date Time Source
MMZH METAR 2022/06/28 00:40 UTC NOAA

MMZH 280040Z 07005KT 4SM TS -RA BKN015CB BKN090 OVC250 26/22 A2991 RMK 60075 8/963 HZ LTGCC


Station Type Date Time Source
MMZH Decoded METAR 2022/06/28 00:40 UTC NOAA

Ixtapa-Zihuatanejo, Mexico (MMZH) 17-36N 101-28W
Jun 27, 2022 - 08:40 PM EDT / 2022.06.28 0040 UTC
Wind: from the ENE (070 degrees) at 6 MPH (5 KT):0
Visibility: 4 mile(s):0
Sky conditions: overcast
Weather: thunder; light rain; Cumulonimbus clouds, lightning observed
Temperature: 78 F (26 C)
Dew Point: 71 F (22 C)
Relative Humidity: 78%
Pressure (altimeter): 29.91 in. Hg (1012 hPa)
ob: MMZH 280040Z 07005KT 4SM TS -RA BKN015CB BKN090 OVC250 26/22 A2991 RMK 60075 8/963 HZ LTGCC
cycle: 0

Station Type Date Time Source
MMZH TAF 2022/06/28 06:58 UTC NOAA

TAF MMZH 280357Z 2806/2906 06005KT P6SM SCT020 BKN080
FM281600 22010KT P6SM SCT020 BKN200 PROB40 2822/2902 5SM TSRA BKN020CB

Example: see airport list